Time;durP1;ratioP1;P1;durP2;ratioP2;P2;SDS_P1;SDS_P2;PMS_P1;PMS_P2;Temp;Humidity;BMP_temperature;BMP_pressure;BME280_temperature;BME280_humidity;BME280_pressure;Samples;Min_cycle;Max_cycle;Signal;HPM_P1;HPM_P2
2021/03/30 00:00:14;;;;;;;8.25;4.20;;;7.90;99.90;;;;;;5066378;28;20033;-79
2021/03/30 00:02:40;;;;;;;8.15;4.22;;;7.80;99.90;;;;;;5066545;28;20036;-79
2021/03/30 00:05:06;;;;;;;9.63;4.70;;;7.70;99.90;;;;;;5066232;28;20053;-79
2021/03/30 00:07:32;;;;;;;9.02;4.65;;;7.70;99.90;;;;;;5082965;28;20077;-79
2021/03/30 00:09:58;;;;;;;9.02;4.70;;;7.70;99.90;;;;;;5066241;28;20029;-78
2021/03/30 00:12:23;;;;;;;9.48;4.85;;;7.60;99.90;;;;;;5066376;28;20029;-79
2021/03/30 00:14:49;;;;;;;9.65;4.95;;;7.70;99.90;;;;;;5067642;28;20055;-78
2021/03/30 00:17:15;;;;;;;10.00;4.97;;;7.60;99.90;;;;;;5082277;28;20126;-78
2021/03/30 00:19:40;;;;;;;9.65;5.15;;;7.70;99.90;;;;;;5066215;28;20048;-79
2021/03/30 00:22:06;;;;;;;7.57;4.45;;;7.70;99.90;;;;;;5066289;28;20033;-79
2021/03/30 00:24:32;;;;;;;11.32;4.40;;;7.50;99.90;;;;;;5065341;28;20045;-79
2021/03/30 00:26:57;;;;;;;10.50;5.07;;;7.50;99.90;;;;;;5066042;28;20032;-79
2021/03/30 00:29:23;;;;;;;9.30;4.68;;;7.40;99.90;;;;;;5066028;28;20044;-78
2021/03/30 00:31:48;;;;;;;8.93;4.43;;;7.50;99.90;;;;;;5067218;28;20036;-79
2021/03/30 00:34:14;;;;;;;10.68;5.72;;;7.40;99.90;;;;;;5067307;28;20024;-78
2021/03/30 00:36:39;;;;;;;8.73;4.55;;;7.30;99.90;;;;;;5065682;28;20075;-79
2021/03/30 00:39:05;;;;;;;8.20;4.25;;;7.30;99.90;;;;;;5065893;28;20029;-79
2021/03/30 00:41:40;;;;;;;8.60;5.20;;;7.30;99.90;;;;;;5065564;28;20064;-78
2021/03/30 00:44:10;;;;;;;8.82;4.75;;;7.20;99.90;;;;;;5064145;28;20119;-78
2021/03/30 00:46:35;;;;;;;7.18;4.53;;;7.20;99.90;;;;;;5049023;28;20036;-79
2021/03/30 00:49:01;;;;;;;7.43;4.30;;;7.30;99.90;;;;;;5064790;28;20037;-78
2021/03/30 00:51:27;;;;;;;10.63;4.30;;;7.20;99.90;;;;;;5055293;28;20033;-79
2021/03/30 00:53:56;;;;;;;7.95;4.22;;;7.20;99.90;;;;;;5047123;28;20050;-79
2021/03/30 00:56:26;;;;;;;10.77;4.80;;;7.20;99.90;;;;;;5046143;28;20097;-78
2021/03/30 00:58:55;;;;;;;8.48;4.45;;;7.20;99.90;;;;;;5046741;28;20029;-79
2021/03/30 01:01:21;;;;;;;9.48;4.28;;;7.30;99.90;;;;;;5046688;28;20021;-78
2021/03/30 01:03:47;;;;;;;9.52;4.60;;;7.30;99.90;;;;;;5047680;28;20116;-78
2021/03/30 01:06:13;;;;;;;8.80;4.28;;;7.40;99.90;;;;;;5066379;28;20025;-78
2021/03/30 01:09:16;;;;;;;11.52;5.68;;;7.30;99.90;;;;;;5081932;28;20049;-78
2021/03/30 01:11:53;;;;;;;10.55;4.80;;;7.20;99.90;;;;;;5048359;28;20033;-78
2021/03/30 01:14:43;;;;;;;9.50;4.85;;;7.10;99.90;;;;;;5065927;28;20021;-78
2021/03/30 01:17:27;;;;;;;9.63;4.38;;;7.10;99.90;;;;;;5065061;28;20037;-78
2021/03/30 01:20:24;;;;;;;8.95;4.63;;;7.10;99.90;;;;;;5048524;28;20036;-78
2021/03/30 01:23:12;;;;;;;10.15;4.72;;;7.00;99.90;;;;;;5065285;28;20374;-78
2021/03/30 01:25:42;;;;;;;9.65;4.32;;;7.00;99.90;;;;;;5064776;28;20029;-79
2021/03/30 01:28:38;;;;;;;9.95;4.95;;;7.00;99.90;;;;;;5065022;28;20067;-79
2021/03/30 01:31:04;;;;;;;9.43;4.88;;;7.00;99.90;;;;;;5065014;28;20032;-78
2021/03/30 01:33:33;;;;;;;9.20;4.55;;;6.90;99.90;;;;;;5064947;28;20389;-78
2021/03/30 01:36:01;;;;;;;11.20;4.35;;;6.90;99.90;;;;;;5066010;28;20060;-78
2021/03/30 01:38:27;;;;;;;10.52;5.43;;;6.80;99.90;;;;;;5064830;28;20037;-78
2021/03/30 01:40:55;;;;;;;8.85;4.85;;;6.70;99.90;;;;;;5064804;28;20032;-79
2021/03/30 01:43:23;;;;;;;9.13;4.90;;;6.60;99.90;;;;;;5051985;28;20044;-79
2021/03/30 01:45:56;;;;;;;12.80;4.95;;;6.70;99.90;;;;;;5046168;28;20026;-79
2021/03/30 01:48:22;;;;;;;8.95;5.05;;;6.90;99.90;;;;;;5044819;28;20033;-79
2021/03/30 01:50:51;;;;;;;11.38;5.00;;;6.80;99.90;;;;;;5049420;28;20113;-79
2021/03/30 01:53:18;;;;;;;9.85;4.88;;;6.70;99.90;;;;;;5064633;28;20079;-78
2021/03/30 01:55:45;;;;;;;10.25;5.88;;;6.80;99.90;;;;;;5066135;28;20471;-78
2021/03/30 01:58:13;;;;;;;12.00;4.65;;;6.70;99.90;;;;;;5064330;28;20071;-79
2021/03/30 02:00:39;;;;;;;13.13;4.95;;;6.70;99.90;;;;;;5065727;28;20096;-78
2021/03/30 02:03:11;;;;;;;11.90;4.78;;;6.80;99.90;;;;;;5065652;28;20059;-78
2021/03/30 02:05:37;;;;;;;12.25;4.65;;;6.70;99.90;;;;;;5064160;28;20033;-79
2021/03/30 02:08:06;;;;;;;14.65;5.43;;;6.80;99.90;;;;;;5065310;28;20053;-78
2021/03/30 02:13:02;;;;;;;13.07;5.53;;;6.60;99.90;;;;;;5064689;28;20116;-78
2021/03/30 02:15:28;;;;;;;9.93;5.10;;;6.60;99.90;;;;;;5065434;28;20396;-78
2021/03/30 02:18:02;;;;;;;14.60;6.68;;;6.50;99.90;;;;;;5064045;28;20029;-79
2021/03/30 02:20:38;;;;;;;12.18;5.80;;;6.60;99.90;;;;;;5064310;28;20119;-78
2021/03/30 02:23:24;;;;;;;14.27;5.07;;;6.60;99.90;;;;;;5064088;28;20095;-78
2021/03/30 02:25:55;;;;;;;11.82;4.80;;;6.50;99.90;;;;;;5064181;28;20044;-79
2021/03/30 02:28:41;;;;;;;12.93;5.65;;;6.40;99.90;;;;;;5063810;28;20071;-78
2021/03/30 02:31:10;;;;;;;13.82;5.13;;;6.30;99.90;;;;;;5064078;28;20041;-78
2021/03/30 02:33:38;;;;;;;10.32;4.70;;;6.30;99.90;;;;;;5063968;28;20028;-78
2021/03/30 02:36:04;;;;;;;13.82;5.80;;;6.20;99.90;;;;;;5064052;28;20033;-78
2021/03/30 02:38:33;;;;;;;12.80;5.75;;;6.20;99.90;;;;;;5063932;28;20051;-78
2021/03/30 02:40:59;;;;;;;14.00;6.18;;;6.20;99.90;;;;;;5068898;28;20034;-78
2021/03/30 02:43:26;;;;;;;12.65;5.93;;;6.10;99.90;;;;;;5044006;28;20038;-78
2021/03/30 02:45:54;;;;;;;13.88;6.45;;;6.10;99.90;;;;;;5045303;28;20040;-79
2021/03/30 02:48:21;;;;;;;11.82;5.00;;;6.00;99.90;;;;;;5043784;28;20037;-78
2021/03/30 02:50:49;;;;;;;14.15;5.55;;;6.00;99.90;;;;;;5065197;28;20033;-79
2021/03/30 02:53:15;;;;;;;13.25;6.53;;;5.90;99.90;;;;;;5063850;28;20057;-78
2021/03/30 02:55:43;;;;;;;10.82;5.10;;;5.90;99.90;;;;;;5063951;28;20025;-78
2021/03/30 02:58:10;;;;;;;13.23;6.22;;;5.90;99.90;;;;;;5046906;28;20029;-78
2021/03/30 03:00:38;;;;;;;12.27;6.32;;;5.80;99.90;;;;;;5065110;28;20056;-78
2021/03/30 03:03:08;;;;;;;15.45;6.35;;;5.80;99.90;;;;;;5063817;28;20040;-78
2021/03/30 03:05:34;;;;;;;11.70;5.75;;;5.80;99.90;;;;;;5065037;28;20035;-78
2021/03/30 03:08:01;;;;;;;11.68;5.57;;;5.70;99.90;;;;;;5064870;28;20045;-79
2021/03/30 03:10:27;;;;;;;14.40;6.45;;;5.80;99.90;;;;;;5079892;28;20052;-78
2021/03/30 03:12:54;;;;;;;14.73;5.93;;;5.80;99.90;;;;;;5067804;28;20048;-78
2021/03/30 03:15:21;;;;;;;14.35;6.45;;;5.70;99.90;;;;;;5051000;28;20036;-78
2021/03/30 03:17:49;;;;;;;12.95;5.90;;;5.70;99.90;;;;;;5067441;28;20154;-78
2021/03/30 03:20:15;;;;;;;15.75;6.65;;;5.60;99.90;;;;;;5067447;28;20045;-78
2021/03/30 03:22:41;;;;;;;13.43;6.00;;;5.70;99.90;;;;;;5050554;28;20044;-78
2021/03/30 03:25:08;;;;;;;13.02;4.97;;;5.60;99.90;;;;;;5067522;28;20036;-78
2021/03/30 03:27:35;;;;;;;14.00;6.05;;;5.50;99.90;;;;;;5067220;28;20033;-78
2021/03/30 03:30:08;;;;;;;15.85;6.57;;;5.50;99.90;;;;;;5068466;28;20037;-78
2021/03/30 03:32:34;;;;;;;13.98;6.30;;;5.40;99.90;;;;;;5067269;28;20028;-79
2021/03/30 03:35:00;;;;;;;15.55;7.63;;;5.40;99.90;;;;;;5066954;28;20051;-77
2021/03/30 03:37:26;;;;;;;14.10;6.30;;;5.30;99.90;;;;;;5067162;28;20040;-78
2021/03/30 03:39:52;;;;;;;17.42;6.72;;;5.30;99.90;;;;;;5066665;28;20040;-78
2021/03/30 03:42:17;;;;;;;13.55;6.63;;;5.20;99.90;;;;;;5067094;28;20043;-78
2021/03/30 03:44:43;;;;;;;14.38;6.60;;;5.20;99.90;;;;;;5066774;28;20037;-78
2021/03/30 03:47:08;;;;;;;14.25;5.68;;;5.20;99.90;;;;;;5066956;28;20060;-78
2021/03/30 03:49:34;;;;;;;14.52;6.35;;;5.10;99.90;;;;;;5068143;28;20037;-78
2021/03/30 03:52:09;;;;;;;13.20;6.30;;;5.10;99.90;;;;;;5052158;28;20037;-78
2021/03/30 03:54:37;;;;;;;15.43;6.93;;;5.00;99.90;;;;;;5047078;28;20029;-78
2021/03/30 03:57:13;;;;;;;17.40;7.55;;;5.00;99.90;;;;;;5046835;28;20474;-78
2021/03/30 03:59:43;;;;;;;16.98;6.00;;;5.10;99.90;;;;;;5048013;28;20083;-78
2021/03/30 04:02:23;;;;;;;;;;;5.00;99.90;;;;;;5047153;28;20030;-78
2021/03/30 04:05:01;;;;;;;12.67;5.00;;;5.00;99.90;;;;;;5058727;28;19920;-78
2021/03/30 04:07:37;;;;;;;14.63;6.60;;;4.90;99.90;;;;;;5082910;28;20295;-78
2021/03/30 04:10:05;;;;;;;14.73;6.20;;;4.90;99.90;;;;;;5063332;28;20044;-78
2021/03/30 04:12:32;;;;;;;15.25;6.40;;;4.90;99.90;;;;;;5046403;28;20087;-78
2021/03/30 04:14:58;;;;;;;15.38;6.93;;;4.90;99.90;;;;;;5046377;28;20040;-79
2021/03/30 04:17:24;;;;;;;13.43;6.10;;;4.90;99.90;;;;;;5046279;28;20064;-78
2021/03/30 04:19:50;;;;;;;14.60;6.68;;;4.80;99.90;;;;;;5046106;28;20405;-78
2021/03/30 04:22:16;;;;;;;17.42;7.47;;;4.80;99.90;;;;;;5046171;28;20029;-79
2021/03/30 04:24:43;;;;;;;16.40;7.35;;;4.80;99.90;;;;;;5045024;28;20037;-78
2021/03/30 04:27:14;;;;;;;15.93;6.65;;;4.70;99.90;;;;;;5046054;28;20029;-78
2021/03/30 04:29:41;;;;;;;15.93;6.15;;;4.60;99.90;;;;;;5045977;28;20060;-78
2021/03/30 04:32:08;;;;;;;13.93;5.88;;;4.70;99.90;;;;;;5062848;28;20103;-78
2021/03/30 04:34:34;;;;;;;16.40;7.55;;;4.60;99.90;;;;;;5046238;28;20041;-78
2021/03/30 04:36:59;;;;;;;20.15;7.05;;;4.50;99.90;;;;;;5062807;28;20026;-78
2021/03/30 04:39:25;;;;;;;17.35;7.82;;;4.50;99.90;;;;;;5045959;28;20030;-78
2021/03/30 04:41:51;;;;;;;16.38;7.32;;;4.50;99.90;;;;;;5047093;28;20040;-78
2021/03/30 04:44:17;;;;;;;17.58;6.90;;;4.50;99.90;;;;;;5045806;28;20509;-78
2021/03/30 04:46:42;;;;;;;17.10;6.93;;;4.50;99.90;;;;;;5045513;28;20056;-79
2021/03/30 04:49:08;;;;;;;15.27;6.32;;;4.50;99.90;;;;;;5046936;28;20036;-78
2021/03/30 04:51:34;;;;;;;17.67;6.93;;;4.50;99.90;;;;;;5056702;28;20377;-79
2021/03/30 04:54:00;;;;;;;19.15;7.28;;;4.40;99.90;;;;;;5065722;28;20059;-79
2021/03/30 04:56:26;;;;;;;15.65;7.28;;;4.50;99.90;;;;;;5048855;28;20072;-79
2021/03/30 04:58:51;;;;;;;16.08;8.05;;;4.50;99.90;;;;;;5065396;28;20029;-79
2021/03/30 05:01:17;;;;;;;17.60;8.15;;;4.30;99.90;;;;;;5066354;28;20029;-79
2021/03/30 05:03:43;;;;;;;17.02;8.57;;;4.40;99.90;;;;;;5061599;28;20056;-79
2021/03/30 05:06:08;;;;;;;16.52;6.75;;;4.30;99.90;;;;;;5065120;28;20025;-79
2021/03/30 05:08:34;;;;;;;17.40;6.55;;;4.20;99.90;;;;;;5065128;28;20055;-79
2021/03/30 05:11:00;;;;;;;17.58;6.75;;;4.20;99.90;;;;;;5081771;28;20033;-79
2021/03/30 05:13:26;;;;;;;17.45;6.78;;;4.10;99.90;;;;;;5066616;28;20032;-79
2021/03/30 05:15:51;;;;;;;16.45;6.18;;;4.10;99.90;;;;;;5051372;28;20088;-79
2021/03/30 05:18:17;;;;;;;16.33;7.68;;;4.10;99.90;;;;;;5069686;28;20039;-79
2021/03/30 05:20:43;;;;;;;14.93;6.78;;;4.20;99.90;;;;;;5069139;28;20029;-79
2021/03/30 05:23:08;;;;;;;18.15;7.63;;;4.20;99.90;;;;;;5082027;28;20064;-79
2021/03/30 05:25:36;;;;;;;16.95;7.53;;;4.10;99.90;;;;;;5065019;28;20114;-79
2021/03/30 05:28:01;;;;;;;18.20;7.03;;;4.10;99.90;;;;;;5064287;28;20055;-79
2021/03/30 05:30:27;;;;;;;17.08;6.43;;;4.10;99.90;;;;;;5080443;28;20029;-79
2021/03/30 05:32:53;;;;;;;17.02;6.53;;;4.10;99.90;;;;;;5080386;28;20033;-79
2021/03/30 05:35:18;;;;;;;18.63;7.10;;;4.00;99.90;;;;;;5064324;28;20081;-80
2021/03/30 05:37:44;;;;;;;11.82;5.57;;;4.10;99.90;;;;;;5063933;28;20033;-79
2021/03/30 05:40:12;;;;;;;12.75;6.00;;;4.10;99.90;;;;;;5064987;28;20040;-79
2021/03/30 05:42:39;;;;;;;14.77;6.13;;;4.10;99.90;;;;;;5080698;28;20052;-79
2021/03/30 05:45:06;;;;;;;16.95;6.55;;;4.00;99.90;;;;;;5080418;28;20037;-79
2021/03/30 05:47:32;;;;;;;18.60;7.30;;;4.10;99.90;;;;;;5063281;28;20128;-79
2021/03/30 05:50:00;;;;;;;16.67;6.38;;;4.10;99.90;;;;;;5063722;28;20036;-79
2021/03/30 05:52:44;;;;;;;17.75;7.25;;;4.10;99.90;;;;;;5047046;28;20039;-79
2021/03/30 05:55:28;;;;;;;15.90;6.18;;;4.10;99.90;;;;;;5063770;28;20037;-78
2021/03/30 05:57:55;;;;;;;18.92;6.93;;;4.10;99.90;;;;;;5063878;28;20105;-79
2021/03/30 06:00:24;;;;;;;16.55;6.57;;;4.10;99.90;;;;;;5065260;28;20061;-79
2021/03/30 06:02:55;;;;;;;16.02;6.70;;;4.20;99.90;;;;;;5079075;28;20053;-79
2021/03/30 06:05:44;;;;;;;14.80;6.63;;;4.30;99.90;;;;;;5063401;28;20044;-79
2021/03/30 06:08:10;;;;;;;16.20;6.75;;;4.40;99.90;;;;;;5025620;28;20163;-79
2021/03/30 06:10:36;;;;;;;17.42;6.32;;;4.50;99.90;;;;;;5042548;28;20049;-79
2021/03/30 06:13:04;;;;;;;16.65;6.90;;;4.50;99.90;;;;;;5042435;28;20053;-79
2021/03/30 06:15:35;;;;;;;17.42;7.00;;;4.60;99.90;;;;;;5016216;28;20042;-79
2021/03/30 06:18:15;;;;;;;17.45;7.15;;;4.80;99.90;;;;;;5021759;28;20088;-79
2021/03/30 06:20:40;;;;;;;;;;;5.00;99.90;;;;;;5006522;28;20052;-79
2021/03/30 06:23:07;;;;;;;16.08;6.68;;;5.20;99.90;;;;;;5006096;28;19972;-79
2021/03/30 06:25:40;;;;;;;15.82;7.10;;;5.30;99.90;;;;;;5022399;28;20038;-79
2021/03/30 06:28:28;;;;;;;17.63;7.38;;;5.40;99.90;;;;;;5006017;28;20065;-79
2021/03/30 06:30:59;;;;;;;16.60;6.63;;;5.50;99.90;;;;;;5005985;28;20037;-78
2021/03/30 06:33:26;;;;;;;19.73;8.05;;;5.80;99.90;;;;;;5022094;28;20042;-79
2021/03/30 06:36:12;;;;;;;19.45;7.63;;;6.00;99.90;;;;;;5005685;28;20038;-79
2021/03/30 06:39:02;;;;;;;16.15;7.25;;;6.20;99.90;;;;;;5022392;28;20052;-79
2021/03/30 06:41:51;;;;;;;;;;;6.40;99.90;;;;;;4990275;28;20061;-79
2021/03/30 06:44:28;;;;;;;15.90;7.47;;;6.50;99.90;;;;;;5025587;28;19921;-79
2021/03/30 06:46:59;;;;;;;17.77;8.13;;;6.80;99.90;;;;;;5060726;28;20478;-79
2021/03/30 06:49:27;;;;;;;19.75;8.77;;;7.00;99.90;;;;;;5047213;28;20071;-79
2021/03/30 06:51:54;;;;;;;18.17;9.18;;;7.10;99.90;;;;;;5057466;28;20026;-79
2021/03/30 06:54:20;;;;;;;21.98;9.38;;;7.30;99.90;;;;;;5063918;28;20033;-79
2021/03/30 06:56:54;;;;;;;21.20;10.45;;;7.50;99.90;;;;;;5048418;28;20026;-79
2021/03/30 06:59:21;;;;;;;19.45;10.20;;;7.70;99.90;;;;;;5047060;28;20030;-79
2021/03/30 07:01:49;;;;;;;20.45;10.07;;;7.90;99.90;;;;;;5063425;28;20037;-79
2021/03/30 07:04:16;;;;;;;18.35;8.82;;;8.00;99.90;;;;;;5052732;28;20036;-80
2021/03/30 07:06:48;;;;;;;24.15;10.55;;;8.40;99.90;;;;;;5049880;28;20039;-80
2021/03/30 07:09:14;;;;;;;18.50;9.55;;;8.50;99.90;;;;;;5069320;28;20049;-80
2021/03/30 07:11:40;;;;;;;20.02;10.35;;;8.70;99.90;;;;;;5083459;28;20029;-80
2021/03/30 07:14:06;;;;;;;22.40;11.25;;;8.90;99.90;;;;;;5068207;28;20147;-80
2021/03/30 07:16:45;;;;;;;20.00;10.30;;;9.10;99.90;;;;;;5065633;28;20776;-80
2021/03/30 07:19:12;;;;;;;22.98;11.02;;;9.30;99.90;;;;;;5067086;28;20037;-80
2021/03/30 07:21:43;;;;;;;26.08;13.40;;;9.50;99.90;;;;;;5066405;28;20036;-80
2021/03/30 07:24:12;;;;;;;23.88;10.68;;;9.70;99.90;;;;;;5049899;28;20052;-79
2021/03/30 07:26:52;;;;;;;22.70;10.90;;;9.80;99.90;;;;;;5066391;28;20040;-80
2021/03/30 07:29:25;;;;;;;20.08;10.38;;;10.00;99.90;;;;;;5066616;28;20151;-80
2021/03/30 07:32:06;;;;;;;19.77;10.57;;;10.20;99.90;;;;;;5049497;28;20041;-80
2021/03/30 07:35:01;;;;;;;24.30;11.55;;;10.30;99.90;;;;;;5066456;28;20049;-80
2021/03/30 07:37:40;;;;;;;24.33;12.80;;;10.60;99.90;;;;;;5083004;28;20060;-80
2021/03/30 07:40:08;;;;;;;21.92;11.15;;;10.90;99.90;;;;;;5049578;28;20473;-80
2021/03/30 07:42:37;;;;;;;24.30;11.55;;;11.00;99.90;;;;;;5066072;28;20040;-80
2021/03/30 07:45:03;;;;;;;24.10;12.00;;;11.20;99.90;;;;;;5082920;28;20041;-80
2021/03/30 07:47:29;;;;;;;23.30;11.90;;;11.30;99.90;;;;;;5067126;28;20035;-80
2021/03/30 07:49:55;;;;;;;22.40;12.02;;;11.40;99.90;;;;;;5082719;28;20040;-80
2021/03/30 07:52:28;;;;;;;22.42;11.90;;;11.60;99.90;;;;;;5065894;28;20073;-80
2021/03/30 07:55:17;;;;;;;22.30;12.10;;;11.70;99.90;;;;;;5066030;28;20033;-81
2021/03/30 07:57:59;;;;;;;26.58;13.90;;;12.00;99.90;;;;;;5065603;28;20454;-80
2021/03/30 08:00:31;;;;;;;24.15;11.57;;;12.20;99.90;;;;;;5065527;28;20033;-80
2021/03/30 08:03:14;;;;;;;19.00;10.45;;;12.30;99.90;;;;;;5065718;28;20037;-80
2021/03/30 08:05:40;;;;;;;22.95;11.90;;;12.50;99.90;;;;;;5067085;28;20033;-80
2021/03/30 08:08:20;;;;;;;24.17;12.82;;;12.50;99.90;;;;;;5065475;28;20132;-80
2021/03/30 08:10:46;;;;;;;18.92;10.50;;;12.50;99.90;;;;;;5049035;28;20112;-81
2021/03/30 08:13:34;;;;;;;22.85;12.38;;;12.40;99.90;;;;;;5048905;28;20064;-80
2021/03/30 08:16:06;;;;;;;21.65;12.38;;;12.40;99.90;;;;;;5065173;28;20033;-80
2021/03/30 08:18:38;;;;;;;23.42;12.35;;;12.50;99.90;;;;;;5065370;28;20096;-80
2021/03/30 08:21:08;;;;;;;22.55;11.18;;;12.70;99.90;;;;;;5065431;28;20124;-80
2021/03/30 08:23:52;;;;;;;22.50;11.43;;;12.90;99.90;;;;;;5065274;28;20041;-80
2021/03/30 08:26:30;;;;;;;22.90;12.07;;;13.00;99.90;;;;;;5065348;28;20036;-81
2021/03/30 08:29:06;;;;;;;20.20;11.27;;;13.10;99.90;;;;;;5065182;28;20072;-81
2021/03/30 08:31:46;;;;;;;20.95;10.85;;;13.30;99.90;;;;;;5064966;28;20100;-80
2021/03/30 08:34:22;;;;;;;20.70;10.13;;;13.30;99.90;;;;;;5081713;28;20127;-80
2021/03/30 08:36:54;;;;;;;16.77;9.70;;;13.40;99.90;;;;;;5060909;28;20080;-80
2021/03/30 08:39:20;;;;;;;21.08;10.77;;;13.50;99.90;;;;;;5047522;28;20035;-80
2021/03/30 08:41:46;;;;;;;17.88;10.60;;;13.80;99.90;;;;;;5064343;28;20037;-81
2021/03/30 08:44:40;;;;;;;19.42;10.18;;;14.00;99.90;;;;;;5064118;28;20044;-81
2021/03/30 08:47:07;;;;;;;20.83;10.38;;;13.90;99.90;;;;;;5065193;28;20033;-81
2021/03/30 08:49:35;;;;;;;23.73;11.57;;;14.10;99.90;;;;;;5064396;28;20266;-81
2021/03/30 08:52:02;;;;;;;21.25;10.93;;;14.00;99.90;;;;;;5051421;28;20029;-81
2021/03/30 08:54:30;;;;;;;22.05;12.30;;;14.30;99.90;;;;;;5044828;28;20029;-81
2021/03/30 08:57:07;;;;;;;25.23;11.93;;;14.40;99.90;;;;;;5044781;28;20022;-81
2021/03/30 08:59:33;;;;;;;24.13;12.77;;;14.60;99.90;;;;;;5061470;28;20044;-81
2021/03/30 09:02:00;;;;;;;15.77;9.00;;;14.80;99.90;;;;;;5044882;28;20018;-82
2021/03/30 09:04:31;;;;;;;19.42;10.98;;;15.10;99.90;;;;;;5052205;28;20037;-81
2021/03/30 09:06:57;;;;;;;20.88;11.60;;;15.00;99.90;;;;;;5080912;28;20029;-81
2021/03/30 09:09:26;;;;;;;20.10;10.75;;;15.00;99.90;;;;;;5065521;28;20041;-81
2021/03/30 09:11:52;;;;;;;19.48;11.18;;;15.20;99.90;;;;;;5064678;28;20029;-81
2021/03/30 09:14:21;;;;;;;20.13;11.27;;;15.20;99.90;;;;;;5081455;28;20102;-81
2021/03/30 09:16:49;;;;;;;19.38;10.68;;;15.40;99.90;;;;;;5081204;28;20102;-81
2021/03/30 09:19:19;;;;;;;19.55;10.90;;;15.50;99.90;;;;;;5064710;28;20051;-81
2021/03/30 09:22:21;;;;;;;19.38;11.63;;;15.60;99.90;;;;;;5064575;28;20028;-81
2021/03/30 09:27:36;;;;;;;19.83;10.65;;;15.80;99.90;;;;;;5064603;28;20090;-79
2021/03/30 09:30:07;;;;;;;;;;;15.90;99.90;;;;;;5064809;28;20057;-79
2021/03/30 09:32:33;;;;;;;;;;;16.00;99.90;;;;;;5064859;28;19908;-79
2021/03/30 09:35:13;;;;;;;15.60;8.13;;;16.20;99.90;;;;;;5080666;28;20019;-79
2021/03/30 09:37:43;;;;;;;15.63;7.70;;;16.20;99.90;;;;;;5080866;28;20033;-79
2021/03/30 09:40:11;;;;;;;14.75;7.97;;;16.40;99.90;;;;;;5064250;28;20033;-79
2021/03/30 09:42:38;;;;;;;20.88;10.40;;;16.60;99.90;;;;;;5080814;28;20444;-79
2021/03/30 09:45:05;;;;;;;29.05;11.52;;;16.50;99.90;;;;;;5065593;28;20033;-79
2021/03/30 09:47:31;;;;;;;23.73;11.75;;;16.30;99.90;;;;;;5063752;28;20105;-79
2021/03/30 09:50:00;;;;;;;18.85;11.43;;;16.30;99.90;;;;;;5064148;28;20428;-79
2021/03/30 09:52:26;;;;;;;21.08;11.68;;;16.60;99.90;;;;;;5063588;28;20445;-79
2021/03/30 09:54:52;;;;;;;21.05;11.73;;;16.60;99.90;;;;;;5063904;28;20061;-79
2021/03/30 09:57:27;;;;;;;22.30;12.52;;;17.00;99.90;;;;;;5063939;28;20036;-79
2021/03/30 09:59:54;;;;;;;24.75;12.80;;;17.00;99.90;;;;;;5063718;28;20032;-79
2021/03/30 10:02:31;;;;;;;21.02;11.38;;;17.20;99.90;;;;;;5063642;28;20150;-79
2021/03/30 10:04:59;;;;;;;18.95;11.02;;;17.20;99.90;;;;;;5063327;28;20048;-79
2021/03/30 10:07:34;;;;;;;18.25;10.60;;;17.20;99.90;;;;;;5046595;28;20081;-79
2021/03/30 10:10:04;;;;;;;24.15;12.75;;;17.40;99.90;;;;;;5080355;28;20045;-80
2021/03/30 10:12:32;;;;;;;;;;;17.70;99.90;;;;;;5064120;28;20133;-79
2021/03/30 10:15:00;;;;;;;26.38;13.00;;;17.70;99.90;;;;;;5080289;28;20340;-79
2021/03/30 10:17:27;;;;;;;26.85;12.80;;;17.80;99.90;;;;;;5080290;28;20422;-80
2021/03/30 10:19:54;;;;;;;22.85;12.48;;;18.20;99.90;;;;;;5046997;28;20029;-79
2021/03/30 10:22:34;;;;;;;26.02;12.40;;;18.00;99.90;;;;;;5062600;28;20055;-80
2021/03/30 10:25:13;;;;;;;22.48;10.77;;;18.20;99.90;;;;;;5063432;28;20041;-80
2021/03/30 10:27:39;;;;;;;25.55;12.85;;;18.40;99.90;;;;;;5080166;28;20106;-80
2021/03/30 10:30:07;;;;;;;28.73;13.63;;;18.50;99.90;;;;;;5046735;28;20030;-80
2021/03/30 10:32:50;;;;;;;28.10;15.10;;;18.70;99.90;;;;;;5063577;28;20033;-80
2021/03/30 10:35:16;;;;;;;23.23;12.35;;;18.70;99.90;;;;;;5063151;28;20029;-79
2021/03/30 10:37:43;;;;;;;26.92;14.30;;;18.80;99.90;;;;;;5079899;28;20032;-80
2021/03/30 10:40:11;;;;;;;23.60;13.27;;;18.80;99.90;;;;;;5063303;28;20101;-80
2021/03/30 10:42:40;;;;;;;27.90;13.25;;;18.80;99.90;;;;;;5064760;28;20032;-80
2021/03/30 10:45:09;;;;;;;22.95;11.90;;;18.90;99.90;;;;;;5063383;28;20040;-80
2021/03/30 10:47:38;;;;;;;25.02;11.77;;;19.00;99.90;;;;;;5063327;28;20039;-80
2021/03/30 10:50:13;;;;;;;22.17;11.82;;;19.20;99.90;;;;;;5063533;28;20029;-80
2021/03/30 10:52:39;;;;;;;16.65;9.77;;;19.20;99.90;;;;;;5063475;28;20025;-80
2021/03/30 10:55:08;;;;;;;22.08;11.85;;;19.30;99.90;;;;;;5063061;28;20058;-80
2021/03/30 10:57:35;;;;;;;20.67;10.98;;;19.20;99.90;;;;;;5063297;28;20096;-80
2021/03/30 11:00:07;;;;;;;18.90;9.40;;;19.40;99.90;;;;;;5063247;28;20041;-80
2021/03/30 11:02:33;;;;;;;16.92;9.70;;;19.50;99.90;;;;;;5063399;28;20033;-80
2021/03/30 11:04:59;;;;;;;20.65;9.98;;;19.30;99.90;;;;;;5062919;28;20045;-80
2021/03/30 11:07:25;;;;;;;14.77;7.75;;;19.50;99.90;;;;;;5062830;28;20049;-79
2021/03/30 11:09:51;;;;;;;18.60;9.52;;;19.90;99.90;;;;;;5079650;28;20087;-80
2021/03/30 11:12:16;;;;;;;13.07;7.50;;;19.80;99.10;;;;;;5063308;28;20033;-81
2021/03/30 11:14:42;;;;;;;14.57;6.97;;;20.00;98.90;;;;;;5079784;28;20025;-81
2021/03/30 11:17:08;;;;;;;12.98;5.78;;;20.00;99.20;;;;;;5062894;28;20025;-81
2021/03/30 11:19:34;;;;;;;13.15;7.38;;;20.30;98.40;;;;;;5062919;28;20060;-82
2021/03/30 11:22:00;;;;;;;14.85;8.00;;;20.10;97.00;;;;;;5079571;28;20086;-81
2021/03/30 11:24:31;;;;;;;14.07;7.00;;;20.00;97.80;;;;;;5062900;28;20104;-81
2021/03/30 11:26:58;;;;;;;11.18;6.00;;;19.80;95.40;;;;;;5063007;28;20025;-81
2021/03/30 11:32:08;;;;;;;9.88;5.45;;;20.00;94.90;;;;;;5060341;28;20039;-82
2021/03/30 11:37:19;;;;;;;13.02;5.68;;;20.50;94.90;;;;;;5065960;28;20092;-84
2021/03/30 11:39:44;;;;;;;13.48;6.65;;;20.40;93.30;;;;;;5066774;28;20033;-84
2021/03/30 11:42:10;;;;;;;14.60;8.45;;;20.20;92.60;;;;;;5083112;28;20025;-83
2021/03/30 11:44:36;;;;;;;18.20;6.70;;;20.10;91.80;;;;;;5083030;28;20063;-85
2021/03/30 11:47:03;;;;;;;12.27;6.63;;;20.20;90.50;;;;;;5066948;28;20033;-83
2021/03/30 11:49:31;;;;;;;11.07;5.82;;;20.50;91.90;;;;;;5067372;28;20033;-82
2021/03/30 11:51:57;;;;;;;12.15;5.53;;;20.70;92.00;;;;;;5063575;28;20059;-81
2021/03/30 11:54:23;;;;;;;13.50;5.90;;;20.90;92.20;;;;;;5030251;28;20037;-82
2021/03/30 11:56:49;;;;;;;12.00;5.90;;;20.80;91.10;;;;;;5045982;28;20057;-82
2021/03/30 11:59:15;;;;;;;12.30;6.75;;;20.90;90.80;;;;;;5046182;28;20064;-81
2021/03/30 12:01:41;;;;;;;14.30;7.15;;;20.80;90.30;;;;;;5046148;28;20116;-81
2021/03/30 12:04:07;;;;;;;14.32;7.22;;;21.00;92.30;;;;;;5050985;28;20142;-81
2021/03/30 12:06:33;;;;;;;19.90;8.95;;;20.80;90.90;;;;;;5066796;28;20049;-81
2021/03/30 12:08:59;;;;;;;12.85;7.25;;;20.40;87.80;;;;;;5067470;28;20037;-81
2021/03/30 12:11:25;;;;;;;20.42;9.05;;;21.00;90.40;;;;;;5082287;28;20040;-80
2021/03/30 12:13:50;;;;;;;18.42;8.40;;;20.80;87.80;;;;;;5066124;28;20029;-81
2021/03/30 12:16:16;;;;;;;16.15;8.73;;;20.80;91.90;;;;;;5065612;28;20362;-81
2021/03/30 12:18:41;;;;;;;12.65;6.65;;;20.80;89.00;;;;;;5065984;28;20041;-81
2021/03/30 12:21:07;;;;;;;15.00;7.35;;;21.20;91.70;;;;;;5065602;28;20028;-81
2021/03/30 12:23:33;;;;;;;18.08;8.32;;;21.40;91.60;;;;;;5067102;28;20378;-80
2021/03/30 12:25:58;;;;;;;18.88;9.13;;;21.40;90.00;;;;;;5065551;28;20100;-81
2021/03/30 12:28:24;;;;;;;15.70;7.80;;;21.20;91.10;;;;;;5065839;28;20101;-81
2021/03/30 12:30:50;;;;;;;17.20;9.00;;;21.40;91.20;;;;;;5065362;28;20056;-81
2021/03/30 12:33:15;;;;;;;19.33;9.43;;;21.50;90.40;;;;;;5065563;28;20037;-80
2021/03/30 12:35:41;;;;;;;17.85;8.85;;;21.30;90.90;;;;;;5081815;28;20029;-81
2021/03/30 12:38:07;;;;;;;13.27;7.18;;;21.30;91.30;;;;;;5065577;28;20033;-81
2021/03/30 12:40:34;;;;;;;17.38;8.85;;;21.70;89.80;;;;;;5065118;28;20029;-81
2021/03/30 12:43:00;;;;;;;18.02;9.30;;;21.70;91.40;;;;;;5082018;28;20039;-81
2021/03/30 12:45:26;;;;;;;18.60;9.77;;;21.50;89.20;;;;;;5064336;28;20029;-81
2021/03/30 12:47:51;;;;;;;14.68;7.32;;;21.20;83.50;;;;;;5081878;28;20098;-81
2021/03/30 12:50:17;;;;;;;11.05;5.93;;;21.60;89.90;;;;;;5065234;28;20080;-81
2021/03/30 12:52:42;;;;;;;9.52;5.47;;;21.50;82.50;;;;;;5065012;28;20029;-81
2021/03/30 12:55:11;;;;;;;9.68;4.90;;;21.70;85.00;;;;;;5065223;28;20033;-81
2021/03/30 12:57:37;;;;;;;12.63;5.15;;;22.00;78.30;;;;;;5065019;28;20039;-81
2021/03/30 13:00:05;;;;;;;14.15;7.20;;;21.80;83.40;;;;;;5065277;28;20032;-83
2021/03/30 13:02:30;;;;;;;11.63;5.68;;;21.60;83.10;;;;;;5065000;28;20029;-81
2021/03/30 13:04:56;;;;;;;11.20;5.80;;;21.70;82.70;;;;;;5064796;28;20028;-81